sensor_id;sensor_type;location;lat;lon;timestamp;temperature;humidity
4699;DHT22;33708;49.466;11.176;2023-05-07T00:00:36;11.80;1.00
4699;DHT22;33708;49.466;11.176;2023-05-07T00:03:03;11.80;1.00
4699;DHT22;33708;49.466;11.176;2023-05-07T00:05:28;11.70;1.00
4699;DHT22;33708;49.466;11.176;2023-05-07T00:07:54;11.90;1.00
4699;DHT22;33708;49.466;11.176;2023-05-07T00:10:19;11.90;1.00
4699;DHT22;33708;49.466;11.176;2023-05-07T00:12:45;11.90;1.00
4699;DHT22;33708;49.466;11.176;2023-05-07T00:15:11;12.00;99.90
4699;DHT22;33708;49.466;11.176;2023-05-07T00:17:37;12.10;1.00
4699;DHT22;33708;49.466;11.176;2023-05-07T00:20:03;12.20;1.00
4699;DHT22;33708;49.466;11.176;2023-05-07T00:22:30;12.30;1.00
4699;DHT22;33708;49.466;11.176;2023-05-07T00:24:58;12.30;1.00
4699;DHT22;33708;49.466;11.176;2023-05-07T00:27:24;12.30;1.00
4699;DHT22;33708;49.466;11.176;2023-05-07T00:29:49;12.40;1.00
4699;DHT22;33708;49.466;11.176;2023-05-07T00:32:15;12.40;1.00
4699;DHT22;33708;49.466;11.176;2023-05-07T00:34:41;12.50;1.00
4699;DHT22;33708;49.466;11.176;2023-05-07T00:37:06;12.50;1.00
4699;DHT22;33708;49.466;11.176;2023-05-07T00:39:35;12.60;1.00
4699;DHT22;33708;49.466;11.176;2023-05-07T00:42:01;12.70;1.00
4699;DHT22;33708;49.466;11.176;2023-05-07T00:44:28;12.80;1.00
4699;DHT22;33708;49.466;11.176;2023-05-07T00:46:54;12.70;1.00
4699;DHT22;33708;49.466;11.176;2023-05-07T00:49:20;12.80;1.00
4699;DHT22;33708;49.466;11.176;2023-05-07T00:51:46;12.90;3.80
4699;DHT22;33708;49.466;11.176;2023-05-07T00:54:13;12.90;1.00
4699;DHT22;33708;49.466;11.176;2023-05-07T00:56:39;12.90;1.80
4699;DHT22;33708;49.466;11.176;2023-05-07T00:59:05;12.90;1.00
4699;DHT22;33708;49.466;11.176;2023-05-07T01:01:31;13.00;1.00
4699;DHT22;33708;49.466;11.176;2023-05-07T01:03:57;12.90;1.00
4699;DHT22;33708;49.466;11.176;2023-05-07T01:06:24;13.10;1.00
4699;DHT22;33708;49.466;11.176;2023-05-07T01:08:51;13.00;1.00
4699;DHT22;33708;49.466;11.176;2023-05-07T01:11:18;13.20;1.00
4699;DHT22;33708;49.466;11.176;2023-05-07T01:13:46;13.40;1.00
4699;DHT22;33708;49.466;11.176;2023-05-07T01:16:12;13.10;1.00
4699;DHT22;33708;49.466;11.176;2023-05-07T01:18:38;13.20;1.10
4699;DHT22;33708;49.466;11.176;2023-05-07T01:21:04;13.20;1.00
4699;DHT22;33708;49.466;11.176;2023-05-07T01:23:30;13.10;1.00
4699;DHT22;33708;49.466;11.176;2023-05-07T01:25:56;13.10;1.00
4699;DHT22;33708;49.466;11.176;2023-05-07T01:28:22;13.20;1.00
4699;DHT22;33708;49.466;11.176;2023-05-07T01:30:51;13.20;1.00
4699;DHT22;33708;49.466;11.176;2023-05-07T01:33:20;13.00;1.00
4699;DHT22;33708;49.466;11.176;2023-05-07T01:35:49;13.10;5.80
4699;DHT22;33708;49.466;11.176;2023-05-07T01:38:16;13.30;11.00
4699;DHT22;33708;49.466;11.176;2023-05-07T01:40:43;13.30;1.00
4699;DHT22;33708;49.466;11.176;2023-05-07T01:43:09;13.40;3.50
4699;DHT22;33708;49.466;11.176;2023-05-07T01:45:36;13.40;1.00
4699;DHT22;33708;49.466;11.176;2023-05-07T01:48:02;13.20;4.80
4699;DHT22;33708;49.466;11.176;2023-05-07T01:50:28;13.20;5.70
4699;DHT22;33708;49.466;11.176;2023-05-07T01:52:55;13.20;16.20
4699;DHT22;33708;49.466;11.176;2023-05-07T01:55:21;13.20;1.00
4699;DHT22;33708;49.466;11.176;2023-05-07T01:57:47;13.30;1.00
4699;DHT22;33708;49.466;11.176;2023-05-07T02:00:12;13.10;1.00
4699;DHT22;33708;49.466;11.176;2023-05-07T02:02:38;13.20;11.80
4699;DHT22;33708;49.466;11.176;2023-05-07T02:05:04;13.20;1.00
4699;DHT22;33708;49.466;11.176;2023-05-07T02:07:30;13.30;1.00
4699;DHT22;33708;49.466;11.176;2023-05-07T02:09:56;13.30;1.00
4699;DHT22;33708;49.466;11.176;2023-05-07T02:12:22;13.20;8.00
4699;DHT22;33708;49.466;11.176;2023-05-07T02:14:48;13.20;14.20
4699;DHT22;33708;49.466;11.176;2023-05-07T02:17:13;13.40;10.80
4699;DHT22;33708;49.466;11.176;2023-05-07T02:19:39;13.10;6.60
4699;DHT22;33708;49.466;11.176;2023-05-07T02:22:05;13.20;3.60
4699;DHT22;33708;49.466;11.176;2023-05-07T02:24:30;13.20;2.40
4699;DHT22;33708;49.466;11.176;2023-05-07T02:26:56;13.50;8.60
4699;DHT22;33708;49.466;11.176;2023-05-07T02:29:21;13.30;5.90
4699;DHT22;33708;49.466;11.176;2023-05-07T02:31:47;13.40;1.00
4699;DHT22;33708;49.466;11.176;2023-05-07T02:34:16;13.20;9.50
4699;DHT22;33708;49.466;11.176;2023-05-07T02:36:42;13.10;15.90
4699;DHT22;33708;49.466;11.176;2023-05-07T02:39:08;13.00;24.40
4699;DHT22;33708;49.466;11.176;2023-05-07T02:41:33;13.10;16.40
4699;DHT22;33708;49.466;11.176;2023-05-07T02:43:59;13.10;13.10
4699;DHT22;33708;49.466;11.176;2023-05-07T02:46:24;13.10;1.00
4699;DHT22;33708;49.466;11.176;2023-05-07T02:48:50;12.90;16.80
4699;DHT22;33708;49.466;11.176;2023-05-07T02:51:19;12.80;11.30
4699;DHT22;33708;49.466;11.176;2023-05-07T02:53:45;12.70;1.00
4699;DHT22;33708;49.466;11.176;2023-05-07T02:56:11;12.90;8.40
4699;DHT22;33708;49.466;11.176;2023-05-07T02:58:37;12.60;20.90
4699;DHT22;33708;49.466;11.176;2023-05-07T03:01:05;12.60;19.90
4699;DHT22;33708;49.466;11.176;2023-05-07T03:03:31;12.50;21.50
4699;DHT22;33708;49.466;11.176;2023-05-07T03:05:56;12.50;19.60
4699;DHT22;33708;49.466;11.176;2023-05-07T03:08:22;12.60;16.60
4699;DHT22;33708;49.466;11.176;2023-05-07T03:10:48;12.40;16.80
4699;DHT22;33708;49.466;11.176;2023-05-07T03:13:13;12.30;24.80
4699;DHT22;33708;49.466;11.176;2023-05-07T03:15:39;12.40;18.20
4699;DHT22;33708;49.466;11.176;2023-05-07T03:18:05;12.20;18.00
4699;DHT22;33708;49.466;11.176;2023-05-07T03:20:31;12.30;28.10
4699;DHT22;33708;49.466;11.176;2023-05-07T03:22:56;12.20;23.30
4699;DHT22;33708;49.466;11.176;2023-05-07T03:25:22;12.20;21.80
4699;DHT22;33708;49.466;11.176;2023-05-07T03:27:48;12.20;18.80
4699;DHT22;33708;49.466;11.176;2023-05-07T03:30:13;12.10;15.90
4699;DHT22;33708;49.466;11.176;2023-05-07T03:32:39;12.10;1.00
4699;DHT22;33708;49.466;11.176;2023-05-07T03:35:05;12.10;12.70
4699;DHT22;33708;49.466;11.176;2023-05-07T03:37:30;12.00;21.90
4699;DHT22;33708;49.466;11.176;2023-05-07T03:39:56;12.10;10.50
4699;DHT22;33708;49.466;11.176;2023-05-07T03:42:22;12.30;10.70
4699;DHT22;33708;49.466;11.176;2023-05-07T03:44:47;12.00;24.30
4699;DHT22;33708;49.466;11.176;2023-05-07T03:47:13;12.00;24.20
4699;DHT22;33708;49.466;11.176;2023-05-07T03:49:39;12.20;14.20
4699;DHT22;33708;49.466;11.176;2023-05-07T03:52:05;11.90;21.30
4699;DHT22;33708;49.466;11.176;2023-05-07T03:54:31;11.90;30.00
4699;DHT22;33708;49.466;11.176;2023-05-07T03:56:57;12.10;27.80
4699;DHT22;33708;49.466;11.176;2023-05-07T03:59:22;11.70;29.70
4699;DHT22;33708;49.466;11.176;2023-05-07T04:01:48;11.70;26.30
4699;DHT22;33708;49.466;11.176;2023-05-07T04:04:16;11.70;34.00
4699;DHT22;33708;49.466;11.176;2023-05-07T04:06:42;12.00;9.50
4699;DHT22;33708;49.466;11.176;2023-05-07T04:09:08;12.90;44.90
4699;DHT22;33708;49.466;11.176;2023-05-07T04:11:35;13.50;35.00
4699;DHT22;33708;49.466;11.176;2023-05-07T04:14:00;13.40;29.90
4699;DHT22;33708;49.466;11.176;2023-05-07T04:16:26;13.10;43.20
4699;DHT22;33708;49.466;11.176;2023-05-07T04:18:51;13.10;22.00
4699;DHT22;33708;49.466;11.176;2023-05-07T04:21:18;13.00;19.50
4699;DHT22;33708;49.466;11.176;2023-05-07T04:23:47;13.00;28.60
4699;DHT22;33708;49.466;11.176;2023-05-07T04:26:12;13.20;19.80
4699;DHT22;33708;49.466;11.176;2023-05-07T04:28:38;12.90;7.00
4699;DHT22;33708;49.466;11.176;2023-05-07T04:31:04;13.00;11.10
4699;DHT22;33708;49.466;11.176;2023-05-07T04:33:31;13.60;17.50
4699;DHT22;33708;49.466;11.176;2023-05-07T04:35:56;13.70;18.10
4699;DHT22;33708;49.466;11.176;2023-05-07T04:38:22;13.80;5.30
4699;DHT22;33708;49.466;11.176;2023-05-07T04:40:49;13.60;19.10
4699;DHT22;33708;49.466;11.176;2023-05-07T04:43:15;13.70;22.40
4699;DHT22;33708;49.466;11.176;2023-05-07T04:45:41;14.30;16.30
4699;DHT22;33708;49.466;11.176;2023-05-07T04:48:08;14.80;27.20
4699;DHT22;33708;49.466;11.176;2023-05-07T04:50:34;14.70;21.80
4699;DHT22;33708;49.466;11.176;2023-05-07T04:52:59;15.20;14.40
4699;DHT22;33708;49.466;11.176;2023-05-07T04:55:25;15.90;12.70
4699;DHT22;33708;49.466;11.176;2023-05-07T04:57:52;16.50;10.00
4699;DHT22;33708;49.466;11.176;2023-05-07T05:00:18;16.20;1.00
4699;DHT22;33708;49.466;11.176;2023-05-07T05:02:45;15.20;1.00
4699;DHT22;33708;49.466;11.176;2023-05-07T05:05:11;15.90;1.00
4699;DHT22;33708;49.466;11.176;2023-05-07T05:07:37;15.40;1.00
4699;DHT22;33708;49.466;11.176;2023-05-07T05:10:04;15.20;1.00
4699;DHT22;33708;49.466;11.176;2023-05-07T05:12:30;15.00;1.00
4699;DHT22;33708;49.466;11.176;2023-05-07T05:14:56;14.90;1.00
4699;DHT22;33708;49.466;11.176;2023-05-07T05:17:21;14.60;1.00
4699;DHT22;33708;49.466;11.176;2023-05-07T05:19:47;14.70;1.00
4699;DHT22;33708;49.466;11.176;2023-05-07T05:22:12;15.10;1.00
4699;DHT22;33708;49.466;11.176;2023-05-07T05:24:38;15.20;1.00
4699;DHT22;33708;49.466;11.176;2023-05-07T05:27:04;16.10;1.00
4699;DHT22;33708;49.466;11.176;2023-05-07T05:29:29;16.30;1.00
4699;DHT22;33708;49.466;11.176;2023-05-07T05:31:57;19.10;1.00
4699;DHT22;33708;49.466;11.176;2023-05-07T05:34:22;19.00;1.00
4699;DHT22;33708;49.466;11.176;2023-05-07T05:36:48;18.90;99.90
4699;DHT22;33708;49.466;11.176;2023-05-07T05:39:14;18.20;99.90
4699;DHT22;33708;49.466;11.176;2023-05-07T05:41:39;17.70;99.90
4699;DHT22;33708;49.466;11.176;2023-05-07T05:44:06;19.80;99.90
4699;DHT22;33708;49.466;11.176;2023-05-07T05:46:31;21.10;99.90
4699;DHT22;33708;49.466;11.176;2023-05-07T05:48:57;19.80;99.90
4699;DHT22;33708;49.466;11.176;2023-05-07T05:51:23;17.90;99.90
4699;DHT22;33708;49.466;11.176;2023-05-07T05:53:48;17.40;99.90
4699;DHT22;33708;49.466;11.176;2023-05-07T05:56:15;16.30;1.00
4699;DHT22;33708;49.466;11.176;2023-05-07T05:58:41;16.00;1.00
4699;DHT22;33708;49.466;11.176;2023-05-07T06:01:06;16.50;1.00
4699;DHT22;33708;49.466;11.176;2023-05-07T06:03:32;15.40;1.00
4699;DHT22;33708;49.466;11.176;2023-05-07T06:05:57;16.10;1.00
4699;DHT22;33708;49.466;11.176;2023-05-07T06:08:23;15.50;1.00
4699;DHT22;33708;49.466;11.176;2023-05-07T06:10:49;15.40;1.00
4699;DHT22;33708;49.466;11.176;2023-05-07T06:13:15;16.00;1.00
4699;DHT22;33708;49.466;11.176;2023-05-07T06:15:40;16.00;1.00
4699;DHT22;33708;49.466;11.176;2023-05-07T06:18:06;16.00;1.00
4699;DHT22;33708;49.466;11.176;2023-05-07T06:20:32;16.50;1.00
4699;DHT22;33708;49.466;11.176;2023-05-07T06:22:57;16.40;1.00
4699;DHT22;33708;49.466;11.176;2023-05-07T06:25:23;16.50;1.00
4699;DHT22;33708;49.466;11.176;2023-05-07T06:27:48;16.80;1.00
4699;DHT22;33708;49.466;11.176;2023-05-07T06:30:14;16.70;1.00
4699;DHT22;33708;49.466;11.176;2023-05-07T06:32:40;16.70;1.00
4699;DHT22;33708;49.466;11.176;2023-05-07T06:35:06;17.10;1.00
4699;DHT22;33708;49.466;11.176;2023-05-07T06:37:32;16.90;1.00
4699;DHT22;33708;49.466;11.176;2023-05-07T06:39:57;17.10;1.00
4699;DHT22;33708;49.466;11.176;2023-05-07T06:42:23;16.80;1.00
4699;DHT22;33708;49.466;11.176;2023-05-07T06:44:49;16.50;1.00
4699;DHT22;33708;49.466;11.176;2023-05-07T06:47:14;16.90;1.00
4699;DHT22;33708;49.466;11.176;2023-05-07T06:49:40;16.60;1.00
4699;DHT22;33708;49.466;11.176;2023-05-07T06:52:05;16.80;1.00
4699;DHT22;33708;49.466;11.176;2023-05-07T06:54:31;17.20;1.00
4699;DHT22;33708;49.466;11.176;2023-05-07T06:56:57;17.70;1.00
4699;DHT22;33708;49.466;11.176;2023-05-07T06:59:23;17.70;1.00
4699;DHT22;33708;49.466;11.176;2023-05-07T07:01:49;17.70;1.00
4699;DHT22;33708;49.466;11.176;2023-05-07T07:04:14;17.40;1.00
4699;DHT22;33708;49.466;11.176;2023-05-07T07:06:40;18.10;1.00
4699;DHT22;33708;49.466;11.176;2023-05-07T07:09:06;18.80;1.00
4699;DHT22;33708;49.466;11.176;2023-05-07T07:11:31;19.30;1.00
4699;DHT22;33708;49.466;11.176;2023-05-07T07:13:57;21.50;1.00
4699;DHT22;33708;49.466;11.176;2023-05-07T07:16:22;22.40;1.00
4699;DHT22;33708;49.466;11.176;2023-05-07T07:18:48;22.90;1.00
4699;DHT22;33708;49.466;11.176;2023-05-07T07:21:13;22.20;37.90
4699;DHT22;33708;49.466;11.176;2023-05-07T07:23:40;21.70;1.00
4699;DHT22;33708;49.466;11.176;2023-05-07T07:26:05;22.40;1.00
4699;DHT22;33708;49.466;11.176;2023-05-07T07:28:32;21.90;1.00
4699;DHT22;33708;49.466;11.176;2023-05-07T07:30:57;21.50;1.00
4699;DHT22;33708;49.466;11.176;2023-05-07T07:33:23;21.80;99.90
4699;DHT22;33708;49.466;11.176;2023-05-07T07:35:48;23.80;1.00
4699;DHT22;33708;49.466;11.176;2023-05-07T07:38:14;23.70;99.90
4699;DHT22;33708;49.466;11.176;2023-05-07T07:40:40;23.50;1.00
4699;DHT22;33708;49.466;11.176;2023-05-07T07:43:05;23.10;1.00
4699;DHT22;33708;49.466;11.176;2023-05-07T07:45:31;21.50;1.00
4699;DHT22;33708;49.466;11.176;2023-05-07T07:47:57;22.50;1.00
4699;DHT22;33708;49.466;11.176;2023-05-07T07:50:22;22.20;1.00
4699;DHT22;33708;49.466;11.176;2023-05-07T07:52:48;22.80;1.00
4699;DHT22;33708;49.466;11.176;2023-05-07T07:55:14;22.70;1.00
4699;DHT22;33708;49.466;11.176;2023-05-07T07:57:43;21.70;1.00
4699;DHT22;33708;49.466;11.176;2023-05-07T08:00:09;22.30;1.00
4699;DHT22;33708;49.466;11.176;2023-05-07T08:02:34;21.70;1.00
4699;DHT22;33708;49.466;11.176;2023-05-07T08:05:00;22.30;25.70
4699;DHT22;33708;49.466;11.176;2023-05-07T08:07:26;21.80;99.90
4699;DHT22;33708;49.466;11.176;2023-05-07T08:09:51;21.30;99.90
4699;DHT22;33708;49.466;11.176;2023-05-07T08:12:17;21.30;99.90
4699;DHT22;33708;49.466;11.176;2023-05-07T08:14:43;20.90;99.90
4699;DHT22;33708;49.466;11.176;2023-05-07T08:17:09;20.80;1.00
4699;DHT22;33708;49.466;11.176;2023-05-07T08:19:35;20.40;1.00
4699;DHT22;33708;49.466;11.176;2023-05-07T08:22:02;21.00;1.00
4699;DHT22;33708;49.466;11.176;2023-05-07T08:24:28;21.10;1.00
4699;DHT22;33708;49.466;11.176;2023-05-07T08:26:53;21.80;1.00
4699;DHT22;33708;49.466;11.176;2023-05-07T08:29:19;22.60;1.00
4699;DHT22;33708;49.466;11.176;2023-05-07T08:31:45;22.70;1.00
4699;DHT22;33708;49.466;11.176;2023-05-07T08:34:10;23.40;1.00
4699;DHT22;33708;49.466;11.176;2023-05-07T08:36:36;24.50;1.00
4699;DHT22;33708;49.466;11.176;2023-05-07T08:39:02;22.70;1.00
4699;DHT22;33708;49.466;11.176;2023-05-07T08:41:28;23.30;99.90
4699;DHT22;33708;49.466;11.176;2023-05-07T08:43:57;24.20;1.00
4699;DHT22;33708;49.466;11.176;2023-05-07T08:46:24;24.20;1.00
4699;DHT22;33708;49.466;11.176;2023-05-07T08:48:51;25.50;1.00
4699;DHT22;33708;49.466;11.176;2023-05-07T08:51:21;26.20;1.00
4699;DHT22;33708;49.466;11.176;2023-05-07T08:53:48;27.70;1.00
4699;DHT22;33708;49.466;11.176;2023-05-07T08:56:15;27.10;1.00
4699;DHT22;33708;49.466;11.176;2023-05-07T08:58:42;27.40;1.00
4699;DHT22;33708;49.466;11.176;2023-05-07T09:01:10;27.60;1.00
4699;DHT22;33708;49.466;11.176;2023-05-07T09:03:38;28.30;1.00
4699;DHT22;33708;49.466;11.176;2023-05-07T09:06:04;26.80;1.00
4699;DHT22;33708;49.466;11.176;2023-05-07T09:08:32;25.30;1.00
4699;DHT22;33708;49.466;11.176;2023-05-07T09:10:58;26.20;1.00
4699;DHT22;33708;49.466;11.176;2023-05-07T09:13:23;27.00;1.00
4699;DHT22;33708;49.466;11.176;2023-05-07T09:15:50;28.30;1.00
4699;DHT22;33708;49.466;11.176;2023-05-07T09:18:15;26.40;1.00
4699;DHT22;33708;49.466;11.176;2023-05-07T09:20:41;26.30;1.00
4699;DHT22;33708;49.466;11.176;2023-05-07T09:23:07;25.50;1.00
4699;DHT22;33708;49.466;11.176;2023-05-07T09:25:35;26.40;1.00
4699;DHT22;33708;49.466;11.176;2023-05-07T09:28:02;27.90;1.00
4699;DHT22;33708;49.466;11.176;2023-05-07T09:30:29;28.20;1.00
4699;DHT22;33708;49.466;11.176;2023-05-07T09:32:56;28.70;1.00
4699;DHT22;33708;49.466;11.176;2023-05-07T09:35:21;27.90;1.00
4699;DHT22;33708;49.466;11.176;2023-05-07T09:37:49;28.30;1.00
4699;DHT22;33708;49.466;11.176;2023-05-07T09:40:26;28.90;1.00
4699;DHT22;33708;49.466;11.176;2023-05-07T09:42:53;28.60;1.00
4699;DHT22;33708;49.466;11.176;2023-05-07T09:45:26;29.20;1.00
4699;DHT22;33708;49.466;11.176;2023-05-07T09:47:55;27.00;1.00
4699;DHT22;33708;49.466;11.176;2023-05-07T09:50:29;25.50;1.00
4699;DHT22;33708;49.466;11.176;2023-05-07T09:52:56;24.00;1.00
4699;DHT22;33708;49.466;11.176;2023-05-07T09:55:22;23.20;1.00
4699;DHT22;33708;49.466;11.176;2023-05-07T09:57:52;24.30;1.00
4699;DHT22;33708;49.466;11.176;2023-05-07T10:00:19;24.80;1.00
4699;DHT22;33708;49.466;11.176;2023-05-07T10:02:48;25.00;1.00
4699;DHT22;33708;49.466;11.176;2023-05-07T10:05:15;24.00;1.00
4699;DHT22;33708;49.466;11.176;2023-05-07T10:07:41;24.60;1.00
4699;DHT22;33708;49.466;11.176;2023-05-07T10:10:08;25.10;1.00
4699;DHT22;33708;49.466;11.176;2023-05-07T10:12:33;24.90;1.00
4699;DHT22;33708;49.466;11.176;2023-05-07T10:15:07;25.20;1.00
4699;DHT22;33708;49.466;11.176;2023-05-07T10:17:36;24.90;1.00
4699;DHT22;33708;49.466;11.176;2023-05-07T10:20:02;25.20;1.00
4699;DHT22;33708;49.466;11.176;2023-05-07T10:22:28;25.50;1.00
4699;DHT22;33708;49.466;11.176;2023-05-07T10:24:56;24.30;1.00
4699;DHT22;33708;49.466;11.176;2023-05-07T10:27:24;24.00;1.00
4699;DHT22;33708;49.466;11.176;2023-05-07T10:32:43;24.00;1.00
4699;DHT22;33708;49.466;11.176;2023-05-07T10:35:17;24.00;1.00
4699;DHT22;33708;49.466;11.176;2023-05-07T10:37:45;23.30;1.00
4699;DHT22;33708;49.466;11.176;2023-05-07T10:40:12;23.30;1.00
4699;DHT22;33708;49.466;11.176;2023-05-07T10:42:37;23.50;1.00
4699;DHT22;33708;49.466;11.176;2023-05-07T10:45:15;23.20;1.00
4699;DHT22;33708;49.466;11.176;2023-05-07T10:48:16;23.30;1.00
4699;DHT22;33708;49.466;11.176;2023-05-07T10:50:45;23.60;1.00
4699;DHT22;33708;49.466;11.176;2023-05-07T10:55:43;24.70;1.00
4699;DHT22;33708;49.466;11.176;2023-05-07T10:58:25;25.50;1.00
4699;DHT22;33708;49.466;11.176;2023-05-07T11:00:59;24.10;1.00
4699;DHT22;33708;49.466;11.176;2023-05-07T11:03:26;23.30;1.00
4699;DHT22;33708;49.466;11.176;2023-05-07T11:11:17;24.30;1.00
4699;DHT22;33708;49.466;11.176;2023-05-07T11:13:46;24.10;1.00
4699;DHT22;33708;49.466;11.176;2023-05-07T11:16:23;24.50;1.00
4699;DHT22;33708;49.466;11.176;2023-05-07T11:18:51;24.90;1.00
4699;DHT22;33708;49.466;11.176;2023-05-07T11:21:36;25.20;1.00
4699;DHT22;33708;49.466;11.176;2023-05-07T11:24:04;25.40;1.00
4699;DHT22;33708;49.466;11.176;2023-05-07T11:26:41;25.60;1.00
4699;DHT22;33708;49.466;11.176;2023-05-07T11:29:14;25.20;1.00
4699;DHT22;33708;49.466;11.176;2023-05-07T11:31:40;24.90;1.00
4699;DHT22;33708;49.466;11.176;2023-05-07T11:34:06;23.50;1.00
4699;DHT22;33708;49.466;11.176;2023-05-07T11:36:33;24.10;1.00
4699;DHT22;33708;49.466;11.176;2023-05-07T11:38:58;24.50;1.00
4699;DHT22;33708;49.466;11.176;2023-05-07T11:41:36;24.90;1.00
4699;DHT22;33708;49.466;11.176;2023-05-07T11:44:02;24.40;1.00
4699;DHT22;33708;49.466;11.176;2023-05-07T11:46:28;25.10;1.00
4699;DHT22;33708;49.466;11.176;2023-05-07T11:48:55;25.10;1.00
4699;DHT22;33708;49.466;11.176;2023-05-07T11:51:22;25.90;1.00
4699;DHT22;33708;49.466;11.176;2023-05-07T11:53:48;25.80;1.00
4699;DHT22;33708;49.466;11.176;2023-05-07T11:56:16;25.60;1.00
4699;DHT22;33708;49.466;11.176;2023-05-07T11:58:42;24.80;1.00
4699;DHT22;33708;49.466;11.176;2023-05-07T12:01:09;25.70;1.00
4699;DHT22;33708;49.466;11.176;2023-05-07T12:03:36;25.30;1.00
4699;DHT22;33708;49.466;11.176;2023-05-07T12:06:08;25.80;1.00
4699;DHT22;33708;49.466;11.176;2023-05-07T12:08:36;25.20;1.00
4699;DHT22;33708;49.466;11.176;2023-05-07T12:11:03;24.50;1.00
4699;DHT22;33708;49.466;11.176;2023-05-07T12:13:32;24.50;1.00
4699;DHT22;33708;49.466;11.176;2023-05-07T12:15:57;24.10;1.00
4699;DHT22;33708;49.466;11.176;2023-05-07T12:18:23;23.90;1.00
4699;DHT22;33708;49.466;11.176;2023-05-07T12:20:50;24.00;1.00
4699;DHT22;33708;49.466;11.176;2023-05-07T12:23:16;24.00;1.00
4699;DHT22;33708;49.466;11.176;2023-05-07T12:25:43;23.90;1.00
4699;DHT22;33708;49.466;11.176;2023-05-07T12:28:14;23.50;1.00
4699;DHT22;33708;49.466;11.176;2023-05-07T12:30:42;23.50;1.00
4699;DHT22;33708;49.466;11.176;2023-05-07T12:33:08;22.90;1.00
4699;DHT22;33708;49.466;11.176;2023-05-07T12:35:39;23.40;1.00
4699;DHT22;33708;49.466;11.176;2023-05-07T12:38:12;23.20;1.00
4699;DHT22;33708;49.466;11.176;2023-05-07T12:43:24;24.00;1.00
4699;DHT22;33708;49.466;11.176;2023-05-07T12:45:51;23.70;1.00
4699;DHT22;33708;49.466;11.176;2023-05-07T12:48:19;23.30;1.00
4699;DHT22;33708;49.466;11.176;2023-05-07T12:50:45;23.30;1.00
4699;DHT22;33708;49.466;11.176;2023-05-07T12:53:11;22.90;1.00
4699;DHT22;33708;49.466;11.176;2023-05-07T12:55:43;22.90;1.00
4699;DHT22;33708;49.466;11.176;2023-05-07T12:58:17;23.10;1.00
4699;DHT22;33708;49.466;11.176;2023-05-07T13:00:44;23.30;1.00
4699;DHT22;33708;49.466;11.176;2023-05-07T13:03:10;23.80;1.00
4699;DHT22;33708;49.466;11.176;2023-05-07T13:05:36;23.60;1.00
4699;DHT22;33708;49.466;11.176;2023-05-07T13:08:02;23.10;1.00
4699;DHT22;33708;49.466;11.176;2023-05-07T13:10:27;23.30;1.00
4699;DHT22;33708;49.466;11.176;2023-05-07T13:12:54;23.70;1.00
4699;DHT22;33708;49.466;11.176;2023-05-07T13:15:19;24.10;1.00
4699;DHT22;33708;49.466;11.176;2023-05-07T13:17:45;24.40;1.00
4699;DHT22;33708;49.466;11.176;2023-05-07T13:20:11;24.40;1.00
4699;DHT22;33708;49.466;11.176;2023-05-07T13:22:38;23.90;1.00
4699;DHT22;33708;49.466;11.176;2023-05-07T13:25:04;25.30;1.00
4699;DHT22;33708;49.466;11.176;2023-05-07T13:27:30;24.80;1.00
4699;DHT22;33708;49.466;11.176;2023-05-07T13:29:56;24.40;1.00
4699;DHT22;33708;49.466;11.176;2023-05-07T13:32:22;23.60;1.00
4699;DHT22;33708;49.466;11.176;2023-05-07T13:34:47;23.30;1.00
4699;DHT22;33708;49.466;11.176;2023-05-07T13:37:13;23.10;1.00
4699;DHT22;33708;49.466;11.176;2023-05-07T13:39:39;22.90;1.00
4699;DHT22;33708;49.466;11.176;2023-05-07T13:42:04;22.70;1.00
4699;DHT22;33708;49.466;11.176;2023-05-07T13:44:30;23.00;1.00
4699;DHT22;33708;49.466;11.176;2023-05-07T13:46:56;23.10;1.00
4699;DHT22;33708;49.466;11.176;2023-05-07T13:49:21;23.10;1.00
4699;DHT22;33708;49.466;11.176;2023-05-07T13:51:47;23.30;1.00
4699;DHT22;33708;49.466;11.176;2023-05-07T13:54:12;23.60;1.00
4699;DHT22;33708;49.466;11.176;2023-05-07T13:56:39;23.50;1.00
4699;DHT22;33708;49.466;11.176;2023-05-07T13:59:05;23.80;1.00
4699;DHT22;33708;49.466;11.176;2023-05-07T14:01:30;23.80;1.00
4699;DHT22;33708;49.466;11.176;2023-05-07T14:03:56;24.20;1.00
4699;DHT22;33708;49.466;11.176;2023-05-07T14:06:25;24.90;1.00
4699;DHT22;33708;49.466;11.176;2023-05-07T14:08:51;25.00;1.00
4699;DHT22;33708;49.466;11.176;2023-05-07T14:11:17;26.10;1.00
4699;DHT22;33708;49.466;11.176;2023-05-07T14:13:42;26.00;1.00
4699;DHT22;33708;49.466;11.176;2023-05-07T14:16:08;25.80;1.00
4699;DHT22;33708;49.466;11.176;2023-05-07T14:18:33;25.10;1.00
4699;DHT22;33708;49.466;11.176;2023-05-07T14:21:00;25.30;1.00
4699;DHT22;33708;49.466;11.176;2023-05-07T14:23:26;25.30;1.00
4699;DHT22;33708;49.466;11.176;2023-05-07T14:25:52;24.80;1.00
4699;DHT22;33708;49.466;11.176;2023-05-07T14:28:19;24.60;1.00
4699;DHT22;33708;49.466;11.176;2023-05-07T14:30:45;24.50;1.00
4699;DHT22;33708;49.466;11.176;2023-05-07T14:33:10;23.90;1.00
4699;DHT22;33708;49.466;11.176;2023-05-07T14:35:36;23.50;1.00
4699;DHT22;33708;49.466;11.176;2023-05-07T14:38:01;24.00;1.00
4699;DHT22;33708;49.466;11.176;2023-05-07T14:40:27;23.50;1.00
4699;DHT22;33708;49.466;11.176;2023-05-07T14:42:52;22.80;1.00
4699;DHT22;33708;49.466;11.176;2023-05-07T14:45:18;23.40;1.00
4699;DHT22;33708;49.466;11.176;2023-05-07T14:47:44;23.40;1.00
4699;DHT22;33708;49.466;11.176;2023-05-07T14:50:09;23.50;1.00
4699;DHT22;33708;49.466;11.176;2023-05-07T14:52:35;23.60;1.00
4699;DHT22;33708;49.466;11.176;2023-05-07T14:55:00;23.20;1.00
4699;DHT22;33708;49.466;11.176;2023-05-07T14:57:26;23.20;1.00
4699;DHT22;33708;49.466;11.176;2023-05-07T14:59:52;23.20;1.00
4699;DHT22;33708;49.466;11.176;2023-05-07T15:02:18;23.50;1.00
4699;DHT22;33708;49.466;11.176;2023-05-07T15:04:44;23.50;1.00
4699;DHT22;33708;49.466;11.176;2023-05-07T15:07:13;23.30;1.00
4699;DHT22;33708;49.466;11.176;2023-05-07T15:09:43;23.10;1.00
4699;DHT22;33708;49.466;11.176;2023-05-07T15:12:08;23.10;1.00
4699;DHT22;33708;49.466;11.176;2023-05-07T15:14:34;22.80;1.00
4699;DHT22;33708;49.466;11.176;2023-05-07T15:17:00;22.90;1.00
4699;DHT22;33708;49.466;11.176;2023-05-07T15:19:26;23.10;1.00
4699;DHT22;33708;49.466;11.176;2023-05-07T15:21:57;23.30;1.00
4699;DHT22;33708;49.466;11.176;2023-05-07T15:24:23;23.00;1.00
4699;DHT22;33708;49.466;11.176;2023-05-07T15:26:49;23.20;1.00
4699;DHT22;33708;49.466;11.176;2023-05-07T15:29:15;23.30;1.00
4699;DHT22;33708;49.466;11.176;2023-05-07T15:31:40;23.10;1.00
4699;DHT22;33708;49.466;11.176;2023-05-07T15:34:06;23.10;1.00
4699;DHT22;33708;49.466;11.176;2023-05-07T15:36:32;23.10;1.00
4699;DHT22;33708;49.466;11.176;2023-05-07T15:38:57;23.00;1.00
4699;DHT22;33708;49.466;11.176;2023-05-07T15:41:24;23.10;1.00
4699;DHT22;33708;49.466;11.176;2023-05-07T15:43:51;23.20;1.00
4699;DHT22;33708;49.466;11.176;2023-05-07T15:46:18;22.80;1.00
4699;DHT22;33708;49.466;11.176;2023-05-07T15:48:44;23.00;1.00
4699;DHT22;33708;49.466;11.176;2023-05-07T15:51:10;22.90;1.00